Terminal Aerodrome Forecast
Issued by NWS

Home | Current Version | Previous Version | Text Only | Print | Product List | Glossary On
Versions: 1 2 3 4 5 6 7 8 9 10 11 12
277
FTUS44 KBMX 232340
TAFTCL
TAF
KTCL 232340Z 2400/2424 30008KT P6SM SCT017 OVC030
     FM240500 32008KT 6SM BR OVC015
     FM241700 33008G15KT P6SM BKN025=

USA.gov is the U.S. government's official web portal to all federal, state and local government web resources and services.